Adriatic Sea — WDB5553 — position and weather

sailwx.info

Track history (hours):
 
Tides and Currents Weather Stations Pressure Air Temp Water Temp Dewpoint Dewpoint Depression Visibility Wind Speed Wind Dir Waves Ship Positions

Adriatic Sea

Owner: Kirby Offshore Marine, LLC, Seattle, WA. More information available from US FCC via Universal Licensing System and Coast Guard Vessel Documentation Center.

Last reported at 2015-Jul-01 05:33 UTC. Time now 2015-Jul-01 06:33 UTC.
Position N 48°23' W 122°51'.

Length 42 m; draft 5.3 m.

Type: Tug. MMSI: 366910890.

Date/timePositionNaut miles runAvg speedWind from/ knotsBaromVisibWave heightAir tempDewpointWater temp
2015-Jul-01 05:33N 48°23' W 122°51'6 6.2
2015-Jul-01 04:33N 48°28' W 122°45'7 7.1
2015-Jul-01 03:33N 48°35' W 122°45'6 6.3
2015-Jul-01 02:33N 48°41' W 122°44'4 4.2
2015-Jul-01 01:30N 48°46' W 122°46'4 2.2
2015-Jun-30 23:33N 48°50' W 122°43'0 0.0
2015-Jun-30 22:32N 48°50' W 122°43'0 0.0
2015-Jun-30 19:10N 48°50' W 122°43'0 0.0
2015-Jun-30 14:33N 48°50' W 122°43'0 0.0
2015-Jun-30 13:33N 48°50' W 122°43'0 0.0
2015-Jun-30 12:27N 48°50' W 122°43'2 2.0
2015-Jun-30 11:33N 48°50' W 122°46'1 0.8
2015-Jun-30 10:33N 48°50' W 122°44'1 1.0
2015-Jun-30 09:33N 48°49' W 122°44'6 5.7
2015-Jun-30 08:33N 48°43' W 122°44'5 5.0
2015-Jun-30 07:33N 48°38' W 122°44'5 4.8
2015-Jun-30 06:33N 48°33' W 122°45'5 5.4
2015-Jun-30 05:33N 48°28' W 122°44'6 5.7
2015-Jun-30 04:33N 48°22' W 122°45'6 5.4
2015-Jun-30 03:32N 48°17' W 122°47'5 5.1
2015-Jun-30 02:31N 48°12' W 122°47'6 6.8
2015-Jun-30 01:34N 48°08' W 122°40'0 6.3
2015-Jun-30 01:33N 48°08' W 122°40'0 6.8
2015-Jun-30 01:30N 48°07' W 122°39'5 5.3
2015-Jun-30 00:33N 48°03' W 122°38'4 5.5
2015-Jun-29 23:54N 47°59' W 122°35'2 5.8
2015-Jun-29 23:33N 47°58' W 122°33'0 5.7
2015-Jun-29 23:32N 47°58' W 122°33'5 5.5
2015-Jun-29 22:33N 47°53' W 122°28'1 5.5
2015-Jun-29 22:19N 47°52' W 122°28'4 5.8
2015-Jun-29 21:33N 47°48' W 122°26'1 5.9
2015-Jun-29 21:28N 47°47' W 122°26'5 5.7
2015-Jun-29 20:33N 47°42' W 122°27'0 4.7
2015-Jun-29 20:33N 47°42' W 122°27'6 5.6
2015-Jun-29 19:33N 47°37' W 122°27'0 5.6
2015-Jun-29 19:32N 47°36' W 122°27'5 5.6
2015-Jun-29 18:33N 47°31' W 122°25'3 5.6
2015-Jun-29 18:07N 47°29' W 122°24'3 6.0
2015-Jun-29 17:33N 47°26' W 122°22'5 4.7
2015-Jun-29 16:33N 47°21' W 122°24'5 5.2
2015-Jun-29 15:32N 47°16' W 122°26'0 0.3
2015-Jun-29 14:29N 47°16' W 122°26'0 0.0
2015-Jun-29 13:32N 47°15' W 122°26'0 0.0
2015-Jun-29 12:29N 47°16' W 122°26'0 0.0
2015-Jun-29 11:32N 47°15' W 122°26'0 0.0
2015-Jun-29 10:32N 47°15' W 122°26'0 0.0
2015-Jun-29 09:32N 47°15' W 122°26'0 0.0
2015-Jun-29 08:31N 47°15' W 122°26'0 0.0
2015-Jun-29 07:31N 47°15' W 122°26'0 0.0
2015-Jun-29 06:31N 47°15' W 122°26'0 0.0
2015-Jun-29 05:31N 47°15' W 122°26'0 0.0
2015-Jun-29 04:31N 47°15' W 122°26'0 0.0
2015-Jun-29 03:31N 47°16' W 122°26'0 0.0
2015-Jun-29 02:31N 47°16' W 122°26'0 0.0
2015-Jun-29 01:31N 47°15' W 122°26'0 0.0
2015-Jun-29 00:31N 47°16' W 122°26'0 0.0
2015-Jun-28 23:31N 47°15' W 122°26'0 0.0
2015-Jun-28 22:31N 47°15' W 122°26'0 0.0
2015-Jun-28 21:31N 47°15' W 122°26'0 0.0
2015-Jun-28 20:31N 47°15' W 122°26'0 0.0
2015-Jun-28 19:31N 47°15' W 122°26'0 0.0
2015-Jun-28 18:31N 47°16' W 122°26'0 0.0
2015-Jun-28 17:31N 47°15' W 122°26'0 0.0
2015-Jun-28 16:31N 47°15' W 122°26'0 0.4
2015-Jun-28 15:33N 47°16' W 122°26'4 3.6
2015-Jun-28 14:33N 47°19' W 122°28'4 4.4
2015-Jun-28 13:33N 47°22' W 122°23'4 4.0
2015-Jun-28 12:33N 47°26' W 122°25'4 4.3
2015-Jun-28 11:33N 47°30' W 122°26'4 4.3
2015-Jun-28 10:33N 47°35' W 122°28'4 4.5
2015-Jun-28 09:33N 47°39' W 122°28'4 4.5
2015-Jun-28 08:33N 47°44' W 122°28'5 4.7
2015-Jun-28 07:33N 47°48' W 122°28'5 5.2
2015-Jun-28 06:33N 47°53' W 122°30'6 5.4
2015-Jun-28 05:31N 47°57' W 122°35'5 5.5
2015-Jun-28 04:36N 48°02' W 122°39'0 4.9
2015-Jun-28 04:31N 48°02' W 122°39'1 5.1
2015-Jun-28 04:15N 48°04' W 122°39'4 4.8
2015-Jun-28 03:29N 48°07' W 122°41'5 5.2
2015-Jun-28 02:29N 48°10' W 122°47'14 5.7
2015-Jun-28 00:03N 48°12' W 123°08'3 6.3
2015-Jun-27 23:31N 48°12' W 123°13'6 6.2
2015-Jun-27 22:33N 48°12' W 123°22'6 6.4
2015-Jun-27 21:33N 48°12' W 123°32'0 9.6
2015-Jun-27 21:32N 48°12' W 123°32'7 6.5
2015-Jun-27 20:30N 48°13' W 123°42'6 6.8
2015-Jun-27 19:33N 48°13' W 123°51'7 6.9
2015-Jun-27 18:33N 48°15' W 124°01'7 6.6
2015-Jun-27 17:33N 48°17' W 124°10'6 5.9
2015-Jun-27 16:33N 48°20' W 124°18'5 5.4
2015-Jun-27 15:33N 48°22' W 124°26'5 4.8
2015-Jun-27 14:33N 48°24' W 124°32'5 4.6
2015-Jun-27 13:33N 48°26' W 124°39'5 4.5
2015-Jun-27 12:33N 48°27' W 124°45'5 5.2
2015-Jun-27 11:33N 48°26' W 124°53'12 5.7
2015-Jun-27 09:28N 48°16' W 125°02'8 6.2
2015-Jun-27 08:08N 48°08' W 125°07'3 5.6
2015-Jun-27 07:30N 48°05' W 125°09'6 5.8
2015-Jun-27 06:31N 47°60' W 125°12'6 5.7
2015-Jun-27 05:33N 47°55' W 125°15'6 5.0
2015-Jun-27 04:17N 47°48' W 125°15'4 4.7
2015-Jun-27 03:33N 47°45' W 125°14'5 4.7
2015-Jun-27 02:27N 47°40' W 125°11'4 4.7
2015-Jun-27 01:33N 47°36' W 125°09'5 5.1
2015-Jun-27 00:33N 47°31' W 125°06'5 5.2
2015-Jun-26 23:33N 47°27' W 125°03'5 4.9
2015-Jun-26 22:33N 47°22' W 125°01'5 4.7
2015-Jun-26 21:27N 47°17' W 124°58'5 4.7
2015-Jun-26 20:22N 47°13' W 124°55'14 4.8
2015-Jun-26 17:29N 46°60' W 124°48'5 5.2
2015-Jun-26 16:33N 46°55' W 124°46'11 5.3
2015-Jun-26 14:33N 46°45' W 124°43'5 5.3
2015-Jun-26 13:33N 46°39' W 124°41'5 5.1
2015-Jun-26 12:33N 46°35' W 124°39'5 5.0
2015-Jun-26 11:33N 46°30' W 124°36'5 5.1
2015-Jun-26 10:33N 46°25' W 124°33'5 5.3
2015-Jun-26 09:33N 46°21' W 124°28'5 5.5
2015-Jun-26 08:33N 46°17' W 124°23'6 5.6
2015-Jun-26 07:33N 46°14' W 124°17'6 6.2
2015-Jun-26 06:33N 46°14' W 124°08'6 6.5
2015-Jun-26 05:33N 46°14' W 123°58'5 5.5
2015-Jun-26 04:33N 46°12' W 123°51'5 5.1
2015-Jun-26 03:33N 46°14' W 123°44'5 4.9
2015-Jun-26 02:33N 46°16' W 123°38'6 5.6
2015-Jun-26 01:33N 46°16' W 123°30'6 5.7
2015-Jun-26 00:33N 46°11' W 123°26'7 6.8
2015-Jun-25 23:33N 46°09' W 123°17'7 7.4
2015-Jun-25 22:33N 46°11' W 123°06'8 7.8
2015-Jun-25 21:33N 46°06' W 122°57'7 7.2
2015-Jun-25 20:33N 46°00' W 122°51'7 7.0
2015-Jun-25 19:33N 45°53' W 122°48'7 6.7
2015-Jun-25 18:33N 45°47' W 122°46'7 6.9
2015-Jun-25 17:33N 45°40' W 122°46'5 5.2
2015-Jun-25 16:33N 45°35' W 122°45'1 0.8
2015-Jun-25 15:33N 45°34' W 122°44'0 0.0
2015-Jun-25 14:33N 45°34' W 122°44'0 0.0
2015-Jun-25 13:33N 45°34' W 122°44'0 0.0
2015-Jun-25 11:33N 45°34' W 122°44'0 0.0
2015-Jun-25 10:33N 45°34' W 122°44'0 0.0
2015-Jun-25 09:33N 45°34' W 122°44'0 0.0
2015-Jun-25 08:33N 45°34' W 122°44'0 0.0
2015-Jun-25 07:33N 45°34' W 122°44'0 0.0
2015-Jun-25 06:33N 45°34' W 122°44'0 0.0
2015-Jun-25 05:33N 45°34' W 122°44'0 0.0
2015-Jun-25 04:33N 45°34' W 122°44'0 0.0
2015-Jun-25 03:33N 45°34' W 122°44'0 0.1
2015-Jun-25 02:33N 45°34' W 122°44'0 0.0
2015-Jun-25 01:33N 45°34' W 122°44'0 0.0
2015-Jun-25 00:33N 45°34' W 122°44'0 0.0
2015-Jun-24 23:33N 45°34' W 122°44'0 0.0
2015-Jun-24 22:33N 45°34' W 122°44'0 0.0
2015-Jun-24 21:33N 45°34' W 122°44'0 0.0
2015-Jun-24 20:33N 45°34' W 122°44'0 0.0
2015-Jun-24 19:33N 45°34' W 122°44'0 0.1
2015-Jun-24 18:33N 45°34' W 122°44'0 0.0
2015-Jun-24 17:33N 45°34' W 122°44'0 0.0
2015-Jun-24 16:33N 45°34' W 122°44'0 0.0
2015-Jun-24 15:33N 45°34' W 122°44'0 0.1
2015-Jun-24 14:33N 45°34' W 122°44'0 0.0
2015-Jun-24 13:33N 45°34' W 122°44'0 0.0
2015-Jun-24 12:33N 45°34' W 122°44'0 0.0
2015-Jun-24 11:33N 45°34' W 122°44'0 0.0
2015-Jun-24 10:33N 45°34' W 122°44'0 0.0
2015-Jun-24 09:33N 45°34' W 122°44'0 0.0
2015-Jun-24 08:29N 45°34' W 122°44'0 0.0
2015-Jun-24 07:31N 45°34' W 122°44'0 0.0
2015-Jun-24 06:33N 45°34' W 122°44'0 0.0
2015-Jun-24 05:33N 45°34' W 122°44'0 0.0
2015-Jun-24 04:33N 45°34' W 122°44'0 0.0
2015-Jun-24 03:33N 45°34' W 122°44'0 0.4
2015-Jun-24 02:33N 45°34' W 122°44'4 4.1
2015-Jun-24 01:33N 45°38' W 122°47'5 4.8
2015-Jun-24 00:33N 45°43' W 122°46'5 4.7
2015-Jun-23 23:33N 45°47' W 122°47'4 4.5
2015-Jun-23 22:33N 45°52' W 122°47'4 4.5
2015-Jun-23 21:33N 45°56' W 122°48'5 4.7
2015-Jun-23 20:33N 46°00' W 122°51'5 4.6
2015-Jun-23 19:33N 46°05' W 122°54'2 4.7
2015-Jun-23 19:05N 46°06' W 122°56'  
Track history (hours):
 
Tides and Currents Weather Stations Pressure Air Temp Water Temp Dewpoint Dewpoint Depression Visibility Wind Speed Wind Dir Waves Ship Positions

Adriatic Sea

Owner: Kirby Offshore Marine, LLC, Seattle, WA. More information available from US FCC via Universal Licensing System and Coast Guard Vessel Documentation Center.

Last reported at 2015-Jul-01 05:33 UTC. Time now 2015-Jul-01 06:33 UTC.
Position N 48°23' W 122°51'.

Length 42 m; draft 5.3 m.

Type: Tug. MMSI: 366910890.

Date/timePositionNaut miles runAvg speedWind from/ knotsBaromVisibWave heightAir tempDewpointWater temp
2015-Jul-01 05:33N 48°23' W 122°51'6 6.2
2015-Jul-01 04:33N 48°28' W 122°45'7 7.1
2015-Jul-01 03:33N 48°35' W 122°45'6 6.3
2015-Jul-01 02:33N 48°41' W 122°44'4 4.2
2015-Jul-01 01:30N 48°46' W 122°46'4 2.2
2015-Jun-30 23:33N 48°50' W 122°43'0 0.0
2015-Jun-30 22:32N 48°50' W 122°43'0 0.0
2015-Jun-30 19:10N 48°50' W 122°43'0 0.0
2015-Jun-30 14:33N 48°50' W 122°43'0 0.0
2015-Jun-30 13:33N 48°50' W 122°43'0 0.0
2015-Jun-30 12:27N 48°50' W 122°43'2 2.0
2015-Jun-30 11:33N 48°50' W 122°46'1 0.8
2015-Jun-30 10:33N 48°50' W 122°44'1 1.0
2015-Jun-30 09:33N 48°49' W 122°44'6 5.7
2015-Jun-30 08:33N 48°43' W 122°44'5 5.0
2015-Jun-30 07:33N 48°38' W 122°44'5 4.8
2015-Jun-30 06:33N 48°33' W 122°45'5 5.4
2015-Jun-30 05:33N 48°28' W 122°44'6 5.7
2015-Jun-30 04:33N 48°22' W 122°45'6 5.4
2015-Jun-30 03:32N 48°17' W 122°47'5 5.1
2015-Jun-30 02:31N 48°12' W 122°47'6 6.8
2015-Jun-30 01:34N 48°08' W 122°40'0 6.3
2015-Jun-30 01:33N 48°08' W 122°40'0 6.8
2015-Jun-30 01:30N 48°07' W 122°39'5 5.3
2015-Jun-30 00:33N 48°03' W 122°38'4 5.5
2015-Jun-29 23:54N 47°59' W 122°35'2 5.8
2015-Jun-29 23:33N 47°58' W 122°33'0 5.7
2015-Jun-29 23:32N 47°58' W 122°33'5 5.5
2015-Jun-29 22:33N 47°53' W 122°28'1 5.5
2015-Jun-29 22:19N 47°52' W 122°28'4 5.8
2015-Jun-29 21:33N 47°48' W 122°26'1 5.9
2015-Jun-29 21:28N 47°47' W 122°26'5 5.7
2015-Jun-29 20:33N 47°42' W 122°27'0 4.7
2015-Jun-29 20:33N 47°42' W 122°27'6 5.6
2015-Jun-29 19:33N 47°37' W 122°27'0 5.6
2015-Jun-29 19:32N 47°36' W 122°27'5 5.6
2015-Jun-29 18:33N 47°31' W 122°25'3 5.6
2015-Jun-29 18:07N 47°29' W 122°24'3 6.0
2015-Jun-29 17:33N 47°26' W 122°22'5 4.7
2015-Jun-29 16:33N 47°21' W 122°24'5 5.2
2015-Jun-29 15:32N 47°16' W 122°26'0 0.3
2015-Jun-29 14:29N 47°16' W 122°26'0 0.0
2015-Jun-29 13:32N 47°15' W 122°26'0 0.0
2015-Jun-29 12:29N 47°16' W 122°26'0 0.0
2015-Jun-29 11:32N 47°15' W 122°26'0 0.0
2015-Jun-29 10:32N 47°15' W 122°26'0 0.0
2015-Jun-29 09:32N 47°15' W 122°26'0 0.0
2015-Jun-29 08:31N 47°15' W 122°26'0 0.0
2015-Jun-29 07:31N 47°15' W 122°26'0 0.0
2015-Jun-29 06:31N 47°15' W 122°26'0 0.0
2015-Jun-29 05:31N 47°15' W 122°26'0 0.0
2015-Jun-29 04:31N 47°15' W 122°26'0 0.0
2015-Jun-29 03:31N 47°16' W 122°26'0 0.0
2015-Jun-29 02:31N 47°16' W 122°26'0 0.0
2015-Jun-29 01:31N 47°15' W 122°26'0 0.0
2015-Jun-29 00:31N 47°16' W 122°26'0 0.0
2015-Jun-28 23:31N 47°15' W 122°26'0 0.0
2015-Jun-28 22:31N 47°15' W 122°26'0 0.0
2015-Jun-28 21:31N 47°15' W 122°26'0 0.0
2015-Jun-28 20:31N 47°15' W 122°26'0 0.0
2015-Jun-28 19:31N 47°15' W 122°26'0 0.0
2015-Jun-28 18:31N 47°16' W 122°26'0 0.0
2015-Jun-28 17:31N 47°15' W 122°26'0 0.0
2015-Jun-28 16:31N 47°15' W 122°26'0 0.4
2015-Jun-28 15:33N 47°16' W 122°26'4 3.6
2015-Jun-28 14:33N 47°19' W 122°28'4 4.4
2015-Jun-28 13:33N 47°22' W 122°23'4 4.0
2015-Jun-28 12:33N 47°26' W 122°25'4 4.3
2015-Jun-28 11:33N 47°30' W 122°26'4 4.3
2015-Jun-28 10:33N 47°35' W 122°28'4 4.5
2015-Jun-28 09:33N 47°39' W 122°28'4 4.5
2015-Jun-28 08:33N 47°44' W 122°28'5 4.7
2015-Jun-28 07:33N 47°48' W 122°28'5 5.2
2015-Jun-28 06:33N 47°53' W 122°30'6 5.4
2015-Jun-28 05:31N 47°57' W 122°35'5 5.5
2015-Jun-28 04:36N 48°02' W 122°39'0 4.9
2015-Jun-28 04:31N 48°02' W 122°39'1 5.1
2015-Jun-28 04:15N 48°04' W 122°39'4 4.8
2015-Jun-28 03:29N 48°07' W 122°41'5 5.2
2015-Jun-28 02:29N 48°10' W 122°47'14 5.7
2015-Jun-28 00:03N 48°12' W 123°08'3 6.3
2015-Jun-27 23:31N 48°12' W 123°13'6 6.2
2015-Jun-27 22:33N 48°12' W 123°22'6 6.4
2015-Jun-27 21:33N 48°12' W 123°32'0 9.6
2015-Jun-27 21:32N 48°12' W 123°32'7 6.5
2015-Jun-27 20:30N 48°13' W 123°42'6 6.8
2015-Jun-27 19:33N 48°13' W 123°51'7 6.9
2015-Jun-27 18:33N 48°15' W 124°01'7 6.6
2015-Jun-27 17:33N 48°17' W 124°10'6 5.9
2015-Jun-27 16:33N 48°20' W 124°18'5 5.4
2015-Jun-27 15:33N 48°22' W 124°26'5 4.8
2015-Jun-27 14:33N 48°24' W 124°32'5 4.6
2015-Jun-27 13:33N 48°26' W 124°39'5 4.5
2015-Jun-27 12:33N 48°27' W 124°45'5 5.2
2015-Jun-27 11:33N 48°26' W 124°53'12 5.7
2015-Jun-27 09:28N 48°16' W 125°02'8 6.2
2015-Jun-27 08:08N 48°08' W 125°07'3 5.6
2015-Jun-27 07:30N 48°05' W 125°09'6 5.8
2015-Jun-27 06:31N 47°60' W 125°12'6 5.7
2015-Jun-27 05:33N 47°55' W 125°15'6 5.0
2015-Jun-27 04:17N 47°48' W 125°15'4 4.7
2015-Jun-27 03:33N 47°45' W 125°14'5 4.7
2015-Jun-27 02:27N 47°40' W 125°11'4 4.7
2015-Jun-27 01:33N 47°36' W 125°09'5 5.1
2015-Jun-27 00:33N 47°31' W 125°06'5 5.2
2015-Jun-26 23:33N 47°27' W 125°03'5 4.9
2015-Jun-26 22:33N 47°22' W 125°01'5 4.7
2015-Jun-26 21:27N 47°17' W 124°58'5 4.7
2015-Jun-26 20:22N 47°13' W 124°55'14 4.8
2015-Jun-26 17:29N 46°60' W 124°48'5 5.2
2015-Jun-26 16:33N 46°55' W 124°46'11 5.3
2015-Jun-26 14:33N 46°45' W 124°43'5 5.3
2015-Jun-26 13:33N 46°39' W 124°41'5 5.1
2015-Jun-26 12:33N 46°35' W 124°39'5 5.0
2015-Jun-26 11:33N 46°30' W 124°36'5 5.1
2015-Jun-26 10:33N 46°25' W 124°33'5 5.3
2015-Jun-26 09:33N 46°21' W 124°28'5 5.5
2015-Jun-26 08:33N 46°17' W 124°23'6 5.6
2015-Jun-26 07:33N 46°14' W 124°17'6 6.2
2015-Jun-26 06:33N 46°14' W 124°08'6 6.5
2015-Jun-26 05:33N 46°14' W 123°58'5 5.5
2015-Jun-26 04:33N 46°12' W 123°51'5 5.1
2015-Jun-26 03:33N 46°14' W 123°44'5 4.9
2015-Jun-26 02:33N 46°16' W 123°38'6 5.6
2015-Jun-26 01:33N 46°16' W 123°30'6 5.7
2015-Jun-26 00:33N 46°11' W 123°26'7 6.8
2015-Jun-25 23:33N 46°09' W 123°17'7 7.4
2015-Jun-25 22:33N 46°11' W 123°06'8 7.8
2015-Jun-25 21:33N 46°06' W 122°57'7 7.2
2015-Jun-25 20:33N 46°00' W 122°51'7 7.0
2015-Jun-25 19:33N 45°53' W 122°48'7 6.7
2015-Jun-25 18:33N 45°47' W 122°46'7 6.9
2015-Jun-25 17:33N 45°40' W 122°46'5 5.2
2015-Jun-25 16:33N 45°35' W 122°45'1 0.8
2015-Jun-25 15:33N 45°34' W 122°44'0 0.0
2015-Jun-25 14:33N 45°34' W 122°44'0 0.0
2015-Jun-25 13:33N 45°34' W 122°44'0 0.0
2015-Jun-25 11:33N 45°34' W 122°44'0 0.0
2015-Jun-25 10:33N 45°34' W 122°44'0 0.0
2015-Jun-25 09:33N 45°34' W 122°44'0 0.0
2015-Jun-25 08:33N 45°34' W 122°44'0 0.0
2015-Jun-25 07:33N 45°34' W 122°44'0 0.0
2015-Jun-25 06:33N 45°34' W 122°44'0 0.0
2015-Jun-25 05:33N 45°34' W 122°44'0 0.0
2015-Jun-25 04:33N 45°34' W 122°44'0 0.0
2015-Jun-25 03:33N 45°34' W 122°44'0 0.1
2015-Jun-25 02:33N 45°34' W 122°44'0 0.0
2015-Jun-25 01:33N 45°34' W 122°44'0 0.0
2015-Jun-25 00:33N 45°34' W 122°44'0 0.0
2015-Jun-24 23:33N 45°34' W 122°44'0 0.0
2015-Jun-24 22:33N 45°34' W 122°44'0 0.0
2015-Jun-24 21:33N 45°34' W 122°44'0 0.0
2015-Jun-24 20:33N 45°34' W 122°44'0 0.0
2015-Jun-24 19:33N 45°34' W 122°44'0 0.1
2015-Jun-24 18:33N 45°34' W 122°44'0 0.0
2015-Jun-24 17:33N 45°34' W 122°44'0 0.0
2015-Jun-24 16:33N 45°34' W 122°44'0 0.0
2015-Jun-24 15:33N 45°34' W 122°44'0 0.1
2015-Jun-24 14:33N 45°34' W 122°44'0 0.0
2015-Jun-24 13:33N 45°34' W 122°44'0 0.0
2015-Jun-24 12:33N 45°34' W 122°44'0 0.0
2015-Jun-24 11:33N 45°34' W 122°44'0 0.0
2015-Jun-24 10:33N 45°34' W 122°44'0 0.0
2015-Jun-24 09:33N 45°34' W 122°44'0 0.0
2015-Jun-24 08:29N 45°34' W 122°44'0 0.0
2015-Jun-24 07:31N 45°34' W 122°44'0 0.0
2015-Jun-24 06:33N 45°34' W 122°44'0 0.0
2015-Jun-24 05:33N 45°34' W 122°44'0 0.0
2015-Jun-24 04:33N 45°34' W 122°44'0 0.0
2015-Jun-24 03:33N 45°34' W 122°44'0 0.4
2015-Jun-24 02:33N 45°34' W 122°44'4 4.1
2015-Jun-24 01:33N 45°38' W 122°47'5 4.8
2015-Jun-24 00:33N 45°43' W 122°46'5 4.7
2015-Jun-23 23:33N 45°47' W 122°47'4 4.5
2015-Jun-23 22:33N 45°52' W 122°47'4 4.5
2015-Jun-23 21:33N 45°56' W 122°48'5 4.7
2015-Jun-23 20:33N 46°00' W 122°51'5 4.6
2015-Jun-23 19:33N 46°05' W 122°54'2 4.7
2015-Jun-23 19:05N 46°06' W 122°56'  

Dump ship's entire track history